MSC Fantasia — 3ETR7 — position and weather

sailwx.info

Track history (hours):
 
Tides and Currents Weather Stations Pressure Air Temp Water Temp Dewpoint Dewpoint Depression Visibility Wind Speed Wind Dir Waves Ship Positions

MSC Fantasia

Last reported at 2017-Dec-11 17:00 UTC. Time now 2017-Dec-13 07:31 UTC.
Position N 17°07' W 061°51'.

Length 333 m; draft 8.7 m.

Type: Ship. MMSI: 370648000.

Date/timePositionNaut miles runAvg speedWind from/ knotsBaromVisibWave heightAir tempDewpointWater temp
2017-Dec-11 17:00N 17°07' W 061°51'0 0.0
2017-Dec-11 16:29N 17°07' W 061°51'0 0.0
2017-Dec-11 15:59N 17°07' W 061°51'0 0.0
2017-Dec-11 15:29N 17°07' W 061°51'0 0.0
2017-Dec-11 14:59N 17°07' W 061°51'0 0.0
2017-Dec-11 14:25N 17°07' W 061°51'0 0.0
2017-Dec-11 13:58N 17°07' W 061°51'0 0.0
2017-Dec-11 13:28N 17°07' W 061°51'0 0.0
2017-Dec-11 12:58N 17°07' W 061°51'0 0.0
2017-Dec-11 12:28N 17°07' W 061°51'0 0.0
2017-Dec-11 11:57N 17°07' W 061°51'0 0.0
2017-Dec-11 11:30N 17°07' W 061°51'0 0.0
2017-Dec-11 10:57N 17°07' W 061°51'0 0.8
2017-Dec-11 10:30N 17°07' W 061°51'3 6.8
2017-Dec-11 10:00N 17°09' W 061°55'510.1
2017-Dec-11 09:30N 17°09' W 061°60'5 9.7
2017-Dec-11 09:01N 17°06' W 062°04'511.0
2017-Dec-11 08:31N 17°00' W 062°04'611.5
2017-Dec-11 08:01N 16°54' W 062°04'611.4
2017-Dec-11 07:31N 16°49' W 062°04'611.5
2017-Dec-11 07:01N 16°43' W 062°04'611.5
2017-Dec-11 06:31N 16°37' W 062°04'612.2
2017-Dec-11 06:01N 16°31' W 062°04'612.5
2017-Dec-11 05:31N 16°25' W 062°04'612.7
2017-Dec-11 05:00N 16°18' W 062°04'612.2
2017-Dec-11 04:31N 16°13' W 062°02'2511.6
2017-Dec-11 02:19N 15°51' W 061°49'23 9.7
2017-Dec-10 23:58N 16°05' W 061°31'510.8
2017-Dec-10 23:30N 16°10' W 061°33'4 0.3
2017-Dec-10 11:26N 16°14' W 061°32'2 4.7
2017-Dec-10 11:00N 16°12' W 061°32'4 8.0
2017-Dec-10 10:30N 16°08' W 061°30'2711.5
2017-Dec-10 08:09N 15°41' W 061°33'1912.5
2017-Dec-10 06:40N 15°24' W 061°39'4813.8
2017-Dec-10 03:12N 14°41' W 061°17'314.5
2017-Dec-10 03:00N 14°39' W 061°15'1013.8
2017-Dec-10 02:18N 14°35' W 061°05'2 6.1
2017-Dec-10 02:00N 14°36' W 061°04'0 0.3
2017-Dec-10 01:28N 14°36' W 061°04'0 0.0
2017-Dec-10 00:58N 14°36' W 061°04'0 0.0
2017-Dec-10 00:30N 14°36' W 061°04'0 0.0
2017-Dec-10 00:00N 14°36' W 061°04'0 0.0
2017-Dec-09 23:24N 14°36' W 061°04'0 0.0
2017-Dec-09 23:00N 14°36' W 061°04'0 0.0
2017-Dec-09 22:30N 14°36' W 061°04'0 0.0
2017-Dec-09 21:59N 14°36' W 061°04'0 0.0
2017-Dec-09 21:29N 14°36' W 061°04'0 0.0
2017-Dec-09 20:59N 14°36' W 061°04'0 0.0
2017-Dec-09 20:29N 14°36' W 061°04'0 0.0
2017-Dec-09 19:59N 14°36' W 061°04'0 0.0
2017-Dec-09 19:28N 14°36' W 061°04'0 0.0
2017-Dec-09 18:58N 14°36' W 061°04'0 0.0
2017-Dec-09 18:28N 14°36' W 061°04'0 0.0
2017-Dec-09 17:58N 14°36' W 061°04'0 0.0
2017-Dec-09 17:30N 14°36' W 061°04'0 0.0
2017-Dec-09 17:00N 14°36' W 061°04'0 0.0
2017-Dec-09 16:18N 14°36' W 061°04'0 0.0
2017-Dec-09 15:57N 14°36' W 061°04'0 0.0
2017-Dec-09 15:27N 14°36' W 061°04'0 0.0
2017-Dec-09 14:56N 14°36' W 061°04'0 0.0
2017-Dec-09 14:26N 14°36' W 061°04'0 0.0
2017-Dec-09 13:55N 14°36' W 061°04'0 0.0
2017-Dec-09 13:22N 14°36' W 061°04'0 0.0
2017-Dec-09 12:55N 14°36' W 061°04'0 0.0
2017-Dec-09 12:24N 14°36' W 061°04'0 0.0
2017-Dec-09 12:00N 14°36' W 061°04'0 0.0
2017-Dec-09 11:18N 14°36' W 061°04'0 1.4
2017-Dec-09 11:00N 14°36' W 061°04'2 4.1
2017-Dec-09 10:30N 14°35' W 061°06'612.8
2017-Dec-09 10:00N 14°38' W 061°11'713.5
2017-Dec-09 09:30N 14°43' W 061°16'10316.2
2017-Dec-09 03:07N 16°12' W 062°11'416.9
2017-Dec-09 02:54N 16°15' W 062°13'716.8
2017-Dec-09 02:31N 16°21' W 062°16'816.9
2017-Dec-09 02:01N 16°28' W 062°20'816.6
2017-Dec-09 01:30N 16°35' W 062°24'817.0
2017-Dec-09 01:01N 16°43' W 062°29'30 2.5
2017-Dec-08 12:42N 17°10' W 062°42'318.0
2017-Dec-08 12:30N 17°07' W 062°41'918.5
2017-Dec-08 12:00N 16°58' W 062°40'1518.0
2017-Dec-08 11:10N 16°43' W 062°37'317.9
2017-Dec-08 11:00N 16°40' W 062°37'917.8
2017-Dec-08 10:30N 16°32' W 062°35'1018.7
2017-Dec-08 10:00N 16°22' W 062°33'  
2017-Dec-04 10:30N 14°05' W 061°05'611.4
2017-Dec-04 10:00N 14°10' W 061°09'610.8
2017-Dec-04 09:29N 14°14' W 061°12'610.7
2017-Dec-04 08:57N 14°19' W 061°16'511.1
2017-Dec-04 08:28N 14°24' W 061°18'611.4
2017-Dec-04 07:54N 14°29' W 061°21'511.6
2017-Dec-04 07:30N 14°34' W 061°23'611.5
2017-Dec-04 06:57N 14°39' W 061°26'612.6
2017-Dec-04 06:30N 14°45' W 061°27'8412.5
2017-Dec-03 23:46N 16°09' W 061°31'2 9.7
2017-Dec-03 23:30N 16°10' W 061°33'4 2.3
2017-Dec-03 21:56N 16°14' W 061°32'0 0.0
2017-Dec-03 21:04N 16°14' W 061°32'0 0.0
2017-Dec-03 20:43N 16°14' W 061°32'0 0.0
2017-Dec-03 20:19N 16°14' W 061°32'0 0.0
2017-Dec-03 17:48N 16°14' W 061°32'0 0.0
2017-Dec-03 17:24N 16°14' W 061°32'0 0.0
2017-Dec-03 14:53N 16°14' W 061°32'0 0.0
2017-Dec-03 14:28N 16°14' W 061°32'0 0.0
2017-Dec-03 13:49N 16°14' W 061°32'0 0.0
2017-Dec-03 12:58N 16°14' W 061°32'0 0.0
2017-Dec-03 12:24N 16°14' W 061°32'0 0.0
2017-Dec-03 11:54N 16°14' W 061°32'0 0.0
2017-Dec-03 11:30N 16°14' W 061°32'2 3.6
2017-Dec-03 11:00N 16°12' W 061°32'4 7.8
2017-Dec-03 10:30N 16°09' W 061°30'711.5
2017-Dec-03 09:56N 16°02' W 061°30'512.3
2017-Dec-03 09:29N 15°57' W 061°30'1712.3
2017-Dec-03 08:05N 15°40' W 061°33'1713.1
2017-Dec-03 06:48N 15°24' W 061°39'414.8
2017-Dec-03 06:30N 15°20' W 061°40'4514.1
2017-Dec-03 03:19N 14°41' W 061°17'414.3
2017-Dec-03 03:01N 14°38' W 061°13'814.1
2017-Dec-03 02:26N 14°35' W 061°05'2 4.7
2017-Dec-03 02:00N 14°36' W 061°04'0 0.0
2017-Dec-03 01:30N 14°36' W 061°04'0 0.0
2017-Dec-03 01:00N 14°36' W 061°04'0 0.0
2017-Dec-03 00:29N 14°36' W 061°04'0 0.0
2017-Dec-02 23:59N 14°36' W 061°04'0 0.0
2017-Dec-02 23:29N 14°36' W 061°04'0 0.0
2017-Dec-02 22:59N 14°36' W 061°04'0 0.0
2017-Dec-02 22:29N 14°36' W 061°04'0 0.0
2017-Dec-02 21:58N 14°36' W 061°04'0 0.0
2017-Dec-02 21:28N 14°36' W 061°04'0 0.0
2017-Dec-02 20:52N 14°36' W 061°04'0 0.0
2017-Dec-02 20:28N 14°36' W 061°04'0 0.0
2017-Dec-02 20:00N 14°36' W 061°04'0 0.0
2017-Dec-02 19:30N 14°36' W 061°04'0 0.0
2017-Dec-02 19:00N 14°36' W 061°04'0 0.0
2017-Dec-02 17:02N 14°36' W 061°04'0 0.0
2017-Dec-02 16:53N 14°36' W 061°04'0 0.0
2017-Dec-02 16:29N 14°36' W 061°04'0 0.0
2017-Dec-02 15:53N 14°36' W 061°04'0 0.0
2017-Dec-02 15:16N 14°36' W 061°04'0 0.0
2017-Dec-02 14:46N 14°36' W 061°04'0 0.0
2017-Dec-02 14:22N 14°36' W 061°04'0 0.0
2017-Dec-02 13:58N 14°36' W 061°04'0 0.0
2017-Dec-02 13:28N 14°36' W 061°04'0 0.0
2017-Dec-02 12:57N 14°36' W 061°04'0 0.0
2017-Dec-02 12:27N 14°36' W 061°04'0 0.0
2017-Dec-02 11:54N 14°36' W 061°04'0 0.0
2017-Dec-02 11:30N 14°36' W 061°04'0 0.6
2017-Dec-02 11:00N 14°36' W 061°04'2 3.6
2017-Dec-02 10:30N 14°35' W 061°06'713.6
2017-Dec-02 10:00N 14°39' W 061°12'11418.5
2017-Dec-02 03:50N 16°22' W 062°03'720.5
2017-Dec-02 03:30N 16°28' W 062°02'1020.3
2017-Dec-02 03:00N 16°39' W 062°01'1019.9
2017-Dec-02 02:30N 16°48' W 062°01'1019.7
2017-Dec-02 02:00N 16°58' W 061°60'918.7
2017-Dec-02 01:30N 17°08' W 061°59'612.5
2017-Dec-02 01:00N 17°08' W 061°52'1 2.4
2017-Dec-02 00:30N 17°07' W 061°51'0 0.0
2017-Dec-02 00:00N 17°07' W 061°51'0 0.0
2017-Dec-01 23:30N 17°07' W 061°51'0 0.0
2017-Dec-01 22:59N 17°07' W 061°51'0 0.0
2017-Dec-01 22:29N 17°07' W 061°51'0 0.0
2017-Dec-01 21:59N 17°07' W 061°51'0 0.0
2017-Dec-01 21:29N 17°07' W 061°51'0 0.0
2017-Dec-01 20:58N 17°07' W 061°51'0 0.0
2017-Dec-01 20:28N 17°07' W 061°51'0 0.0
2017-Dec-01 19:58N 17°07' W 061°51'0 0.0
2017-Dec-01 19:28N 17°07' W 061°51'0 0.0
2017-Dec-01 18:58N 17°07' W 061°51'0 0.0
2017-Dec-01 18:30N 17°07' W 061°51'0 0.0
2017-Dec-01 18:01N 17°07' W 061°51'2 4.4
2017-Dec-01 17:30N 17°08' W 061°53'713.6
2017-Dec-01 17:01N 17°09' W 062°00'  
Track history (hours):
 
Tides and Currents Weather Stations Pressure Air Temp Water Temp Dewpoint Dewpoint Depression Visibility Wind Speed Wind Dir Waves Ship Positions

MSC Fantasia

Last reported at 2017-Dec-11 17:00 UTC. Time now 2017-Dec-13 07:31 UTC.
Position N 17°07' W 061°51'.

Length 333 m; draft 8.7 m.

Type: Ship. MMSI: 370648000.

Date/timePositionNaut miles runAvg speedWind from/ knotsBaromVisibWave heightAir tempDewpointWater temp
2017-Dec-11 17:00N 17°07' W 061°51'0 0.0
2017-Dec-11 16:29N 17°07' W 061°51'0 0.0
2017-Dec-11 15:59N 17°07' W 061°51'0 0.0
2017-Dec-11 15:29N 17°07' W 061°51'0 0.0
2017-Dec-11 14:59N 17°07' W 061°51'0 0.0
2017-Dec-11 14:25N 17°07' W 061°51'0 0.0
2017-Dec-11 13:58N 17°07' W 061°51'0 0.0
2017-Dec-11 13:28N 17°07' W 061°51'0 0.0
2017-Dec-11 12:58N 17°07' W 061°51'0 0.0
2017-Dec-11 12:28N 17°07' W 061°51'0 0.0
2017-Dec-11 11:57N 17°07' W 061°51'0 0.0
2017-Dec-11 11:30N 17°07' W 061°51'0 0.0
2017-Dec-11 10:57N 17°07' W 061°51'0 0.8
2017-Dec-11 10:30N 17°07' W 061°51'3 6.8
2017-Dec-11 10:00N 17°09' W 061°55'510.1
2017-Dec-11 09:30N 17°09' W 061°60'5 9.7
2017-Dec-11 09:01N 17°06' W 062°04'511.0
2017-Dec-11 08:31N 17°00' W 062°04'611.5
2017-Dec-11 08:01N 16°54' W 062°04'611.4
2017-Dec-11 07:31N 16°49' W 062°04'611.5
2017-Dec-11 07:01N 16°43' W 062°04'611.5
2017-Dec-11 06:31N 16°37' W 062°04'612.2
2017-Dec-11 06:01N 16°31' W 062°04'612.5
2017-Dec-11 05:31N 16°25' W 062°04'612.7
2017-Dec-11 05:00N 16°18' W 062°04'612.2
2017-Dec-11 04:31N 16°13' W 062°02'2511.6
2017-Dec-11 02:19N 15°51' W 061°49'23 9.7
2017-Dec-10 23:58N 16°05' W 061°31'510.8
2017-Dec-10 23:30N 16°10' W 061°33'4 0.3
2017-Dec-10 11:26N 16°14' W 061°32'2 4.7
2017-Dec-10 11:00N 16°12' W 061°32'4 8.0
2017-Dec-10 10:30N 16°08' W 061°30'2711.5
2017-Dec-10 08:09N 15°41' W 061°33'1912.5
2017-Dec-10 06:40N 15°24' W 061°39'4813.8
2017-Dec-10 03:12N 14°41' W 061°17'314.5
2017-Dec-10 03:00N 14°39' W 061°15'1013.8
2017-Dec-10 02:18N 14°35' W 061°05'2 6.1
2017-Dec-10 02:00N 14°36' W 061°04'0 0.3
2017-Dec-10 01:28N 14°36' W 061°04'0 0.0
2017-Dec-10 00:58N 14°36' W 061°04'0 0.0
2017-Dec-10 00:30N 14°36' W 061°04'0 0.0
2017-Dec-10 00:00N 14°36' W 061°04'0 0.0
2017-Dec-09 23:24N 14°36' W 061°04'0 0.0
2017-Dec-09 23:00N 14°36' W 061°04'0 0.0
2017-Dec-09 22:30N 14°36' W 061°04'0 0.0
2017-Dec-09 21:59N 14°36' W 061°04'0 0.0
2017-Dec-09 21:29N 14°36' W 061°04'0 0.0
2017-Dec-09 20:59N 14°36' W 061°04'0 0.0
2017-Dec-09 20:29N 14°36' W 061°04'0 0.0
2017-Dec-09 19:59N 14°36' W 061°04'0 0.0
2017-Dec-09 19:28N 14°36' W 061°04'0 0.0
2017-Dec-09 18:58N 14°36' W 061°04'0 0.0
2017-Dec-09 18:28N 14°36' W 061°04'0 0.0
2017-Dec-09 17:58N 14°36' W 061°04'0 0.0
2017-Dec-09 17:30N 14°36' W 061°04'0 0.0
2017-Dec-09 17:00N 14°36' W 061°04'0 0.0
2017-Dec-09 16:18N 14°36' W 061°04'0 0.0
2017-Dec-09 15:57N 14°36' W 061°04'0 0.0
2017-Dec-09 15:27N 14°36' W 061°04'0 0.0
2017-Dec-09 14:56N 14°36' W 061°04'0 0.0
2017-Dec-09 14:26N 14°36' W 061°04'0 0.0
2017-Dec-09 13:55N 14°36' W 061°04'0 0.0
2017-Dec-09 13:22N 14°36' W 061°04'0 0.0
2017-Dec-09 12:55N 14°36' W 061°04'0 0.0
2017-Dec-09 12:24N 14°36' W 061°04'0 0.0
2017-Dec-09 12:00N 14°36' W 061°04'0 0.0
2017-Dec-09 11:18N 14°36' W 061°04'0 1.4
2017-Dec-09 11:00N 14°36' W 061°04'2 4.1
2017-Dec-09 10:30N 14°35' W 061°06'612.8
2017-Dec-09 10:00N 14°38' W 061°11'713.5
2017-Dec-09 09:30N 14°43' W 061°16'10316.2
2017-Dec-09 03:07N 16°12' W 062°11'416.9
2017-Dec-09 02:54N 16°15' W 062°13'716.8
2017-Dec-09 02:31N 16°21' W 062°16'816.9
2017-Dec-09 02:01N 16°28' W 062°20'816.6
2017-Dec-09 01:30N 16°35' W 062°24'817.0
2017-Dec-09 01:01N 16°43' W 062°29'30 2.5
2017-Dec-08 12:42N 17°10' W 062°42'318.0
2017-Dec-08 12:30N 17°07' W 062°41'918.5
2017-Dec-08 12:00N 16°58' W 062°40'1518.0
2017-Dec-08 11:10N 16°43' W 062°37'317.9
2017-Dec-08 11:00N 16°40' W 062°37'917.8
2017-Dec-08 10:30N 16°32' W 062°35'1018.7
2017-Dec-08 10:00N 16°22' W 062°33'  
2017-Dec-04 10:30N 14°05' W 061°05'611.4
2017-Dec-04 10:00N 14°10' W 061°09'610.8
2017-Dec-04 09:29N 14°14' W 061°12'610.7
2017-Dec-04 08:57N 14°19' W 061°16'511.1
2017-Dec-04 08:28N 14°24' W 061°18'611.4
2017-Dec-04 07:54N 14°29' W 061°21'511.6
2017-Dec-04 07:30N 14°34' W 061°23'611.5
2017-Dec-04 06:57N 14°39' W 061°26'612.6
2017-Dec-04 06:30N 14°45' W 061°27'8412.5
2017-Dec-03 23:46N 16°09' W 061°31'2 9.7
2017-Dec-03 23:30N 16°10' W 061°33'4 2.3
2017-Dec-03 21:56N 16°14' W 061°32'0 0.0
2017-Dec-03 21:04N 16°14' W 061°32'0 0.0
2017-Dec-03 20:43N 16°14' W 061°32'0 0.0
2017-Dec-03 20:19N 16°14' W 061°32'0 0.0
2017-Dec-03 17:48N 16°14' W 061°32'0 0.0
2017-Dec-03 17:24N 16°14' W 061°32'0 0.0
2017-Dec-03 14:53N 16°14' W 061°32'0 0.0
2017-Dec-03 14:28N 16°14' W 061°32'0 0.0
2017-Dec-03 13:49N 16°14' W 061°32'0 0.0
2017-Dec-03 12:58N 16°14' W 061°32'0 0.0
2017-Dec-03 12:24N 16°14' W 061°32'0 0.0
2017-Dec-03 11:54N 16°14' W 061°32'0 0.0
2017-Dec-03 11:30N 16°14' W 061°32'2 3.6
2017-Dec-03 11:00N 16°12' W 061°32'4 7.8
2017-Dec-03 10:30N 16°09' W 061°30'711.5
2017-Dec-03 09:56N 16°02' W 061°30'512.3
2017-Dec-03 09:29N 15°57' W 061°30'1712.3
2017-Dec-03 08:05N 15°40' W 061°33'1713.1
2017-Dec-03 06:48N 15°24' W 061°39'414.8
2017-Dec-03 06:30N 15°20' W 061°40'4514.1
2017-Dec-03 03:19N 14°41' W 061°17'414.3
2017-Dec-03 03:01N 14°38' W 061°13'814.1
2017-Dec-03 02:26N 14°35' W 061°05'2 4.7
2017-Dec-03 02:00N 14°36' W 061°04'0 0.0
2017-Dec-03 01:30N 14°36' W 061°04'0 0.0
2017-Dec-03 01:00N 14°36' W 061°04'0 0.0
2017-Dec-03 00:29N 14°36' W 061°04'0 0.0
2017-Dec-02 23:59N 14°36' W 061°04'0 0.0
2017-Dec-02 23:29N 14°36' W 061°04'0 0.0
2017-Dec-02 22:59N 14°36' W 061°04'0 0.0
2017-Dec-02 22:29N 14°36' W 061°04'0 0.0
2017-Dec-02 21:58N 14°36' W 061°04'0 0.0
2017-Dec-02 21:28N 14°36' W 061°04'0 0.0
2017-Dec-02 20:52N 14°36' W 061°04'0 0.0
2017-Dec-02 20:28N 14°36' W 061°04'0 0.0
2017-Dec-02 20:00N 14°36' W 061°04'0 0.0
2017-Dec-02 19:30N 14°36' W 061°04'0 0.0
2017-Dec-02 19:00N 14°36' W 061°04'0 0.0
2017-Dec-02 17:02N 14°36' W 061°04'0 0.0
2017-Dec-02 16:53N 14°36' W 061°04'0 0.0
2017-Dec-02 16:29N 14°36' W 061°04'0 0.0
2017-Dec-02 15:53N 14°36' W 061°04'0 0.0
2017-Dec-02 15:16N 14°36' W 061°04'0 0.0
2017-Dec-02 14:46N 14°36' W 061°04'0 0.0
2017-Dec-02 14:22N 14°36' W 061°04'0 0.0
2017-Dec-02 13:58N 14°36' W 061°04'0 0.0
2017-Dec-02 13:28N 14°36' W 061°04'0 0.0
2017-Dec-02 12:57N 14°36' W 061°04'0 0.0
2017-Dec-02 12:27N 14°36' W 061°04'0 0.0
2017-Dec-02 11:54N 14°36' W 061°04'0 0.0
2017-Dec-02 11:30N 14°36' W 061°04'0 0.6
2017-Dec-02 11:00N 14°36' W 061°04'2 3.6
2017-Dec-02 10:30N 14°35' W 061°06'713.6
2017-Dec-02 10:00N 14°39' W 061°12'11418.5
2017-Dec-02 03:50N 16°22' W 062°03'720.5
2017-Dec-02 03:30N 16°28' W 062°02'1020.3
2017-Dec-02 03:00N 16°39' W 062°01'1019.9
2017-Dec-02 02:30N 16°48' W 062°01'1019.7
2017-Dec-02 02:00N 16°58' W 061°60'918.7
2017-Dec-02 01:30N 17°08' W 061°59'612.5
2017-Dec-02 01:00N 17°08' W 061°52'1 2.4
2017-Dec-02 00:30N 17°07' W 061°51'0 0.0
2017-Dec-02 00:00N 17°07' W 061°51'0 0.0
2017-Dec-01 23:30N 17°07' W 061°51'0 0.0
2017-Dec-01 22:59N 17°07' W 061°51'0 0.0
2017-Dec-01 22:29N 17°07' W 061°51'0 0.0
2017-Dec-01 21:59N 17°07' W 061°51'0 0.0
2017-Dec-01 21:29N 17°07' W 061°51'0 0.0
2017-Dec-01 20:58N 17°07' W 061°51'0 0.0
2017-Dec-01 20:28N 17°07' W 061°51'0 0.0
2017-Dec-01 19:58N 17°07' W 061°51'0 0.0
2017-Dec-01 19:28N 17°07' W 061°51'0 0.0
2017-Dec-01 18:58N 17°07' W 061°51'0 0.0
2017-Dec-01 18:30N 17°07' W 061°51'0 0.0
2017-Dec-01 18:01N 17°07' W 061°51'2 4.4
2017-Dec-01 17:30N 17°08' W 061°53'713.6
2017-Dec-01 17:01N 17°09' W 062°00'  

Dump ship's entire track history